sensor_id;sensor_type;location;lat;lon;timestamp;P1;durP1;ratioP1;P2;durP2;ratioP2
4214;SDS011;2121;48.062;7.850;2024-03-08T00:00:15;27.20;;;13.57;;
4214;SDS011;2121;48.062;7.850;2024-03-08T00:02:43;26.20;;;14.63;;
4214;SDS011;2121;48.062;7.850;2024-03-08T00:05:11;26.27;;;11.83;;
4214;SDS011;2121;48.062;7.850;2024-03-08T00:07:38;22.23;;;12.73;;
4214;SDS011;2121;48.062;7.850;2024-03-08T00:10:08;23.23;;;13.87;;
4214;SDS011;2121;48.062;7.850;2024-03-08T00:12:36;29.57;;;16.20;;
4214;SDS011;2121;48.062;7.850;2024-03-08T00:15:03;26.63;;;13.77;;
4214;SDS011;2121;48.062;7.850;2024-03-08T00:17:31;25.50;;;13.80;;
4214;SDS011;2121;48.062;7.850;2024-03-08T00:19:57;29.10;;;14.50;;
4214;SDS011;2121;48.062;7.850;2024-03-08T00:22:22;25.40;;;13.53;;
4214;SDS011;2121;48.062;7.850;2024-03-08T00:24:48;26.80;;;12.80;;
4214;SDS011;2121;48.062;7.850;2024-03-08T00:27:15;22.10;;;12.63;;
4214;SDS011;2121;48.062;7.850;2024-03-08T00:29:41;26.07;;;14.43;;
4214;SDS011;2121;48.062;7.850;2024-03-08T00:32:07;31.80;;;15.17;;
4214;SDS011;2121;48.062;7.850;2024-03-08T00:34:35;29.90;;;14.10;;
4214;SDS011;2121;48.062;7.850;2024-03-08T00:37:02;26.20;;;13.67;;
4214;SDS011;2121;48.062;7.850;2024-03-08T00:39:28;29.53;;;15.03;;
4214;SDS011;2121;48.062;7.850;2024-03-08T00:41:54;29.43;;;14.67;;
4214;SDS011;2121;48.062;7.850;2024-03-08T00:44:20;25.00;;;14.60;;
4214;SDS011;2121;48.062;7.850;2024-03-08T00:46:46;26.77;;;14.90;;
4214;SDS011;2121;48.062;7.850;2024-03-08T00:49:11;31.90;;;15.43;;
4214;SDS011;2121;48.062;7.850;2024-03-08T00:51:37;32.13;;;16.70;;
4214;SDS011;2121;48.062;7.850;2024-03-08T00:54:03;27.10;;;15.60;;
4214;SDS011;2121;48.062;7.850;2024-03-08T00:56:29;28.87;;;15.90;;
4214;SDS011;2121;48.062;7.850;2024-03-08T00:58:55;27.27;;;15.30;;
4214;SDS011;2121;48.062;7.850;2024-03-08T01:01:20;25.70;;;15.10;;
4214;SDS011;2121;48.062;7.850;2024-03-08T01:03:47;26.10;;;15.13;;
4214;SDS011;2121;48.062;7.850;2024-03-08T01:06:13;34.13;;;16.97;;
4214;SDS011;2121;48.062;7.850;2024-03-08T01:08:39;27.23;;;15.50;;
4214;SDS011;2121;48.062;7.850;2024-03-08T01:11:07;24.40;;;13.30;;
4214;SDS011;2121;48.062;7.850;2024-03-08T01:13:34;33.80;;;19.35;;
4214;SDS011;2121;48.062;7.850;2024-03-08T01:16:01;30.00;;;15.83;;
4214;SDS011;2121;48.062;7.850;2024-03-08T01:18:27;29.20;;;16.17;;
4214;SDS011;2121;48.062;7.850;2024-03-08T01:20:54;37.37;;;16.40;;
4214;SDS011;2121;48.062;7.850;2024-03-08T01:23:19;27.07;;;14.83;;
4214;SDS011;2121;48.062;7.850;2024-03-08T01:25:45;26.17;;;15.13;;
4214;SDS011;2121;48.062;7.850;2024-03-08T01:28:11;27.70;;;14.83;;
4214;SDS011;2121;48.062;7.850;2024-03-08T01:30:37;29.17;;;15.60;;
4214;SDS011;2121;48.062;7.850;2024-03-08T01:33:03;29.07;;;14.30;;
4214;SDS011;2121;48.062;7.850;2024-03-08T01:35:29;31.87;;;15.87;;
4214;SDS011;2121;48.062;7.850;2024-03-08T01:37:55;34.80;;;14.27;;
4214;SDS011;2121;48.062;7.850;2024-03-08T01:40:21;29.27;;;14.70;;
4214;SDS011;2121;48.062;7.850;2024-03-08T01:42:47;33.13;;;15.97;;
4214;SDS011;2121;48.062;7.850;2024-03-08T01:45:13;28.43;;;16.10;;
4214;SDS011;2121;48.062;7.850;2024-03-08T01:47:38;25.23;;;14.00;;
4214;SDS011;2121;48.062;7.850;2024-03-08T01:50:05;31.53;;;15.70;;
4214;SDS011;2121;48.062;7.850;2024-03-08T01:52:31;28.57;;;14.40;;
4214;SDS011;2121;48.062;7.850;2024-03-08T01:55:02;26.87;;;14.00;;
4214;SDS011;2121;48.062;7.850;2024-03-08T01:57:32;24.80;;;14.50;;
4214;SDS011;2121;48.062;7.850;2024-03-08T02:00:03;30.67;;;14.87;;
4214;SDS011;2121;48.062;7.850;2024-03-08T02:02:30;31.00;;;15.90;;
4214;SDS011;2121;48.062;7.850;2024-03-08T02:04:59;28.13;;;15.43;;
4214;SDS011;2121;48.062;7.850;2024-03-08T02:07:26;25.57;;;13.47;;
4214;SDS011;2121;48.062;7.850;2024-03-08T02:09:51;28.00;;;15.70;;
4214;SDS011;2121;48.062;7.850;2024-03-08T02:12:17;28.73;;;14.37;;
4214;SDS011;2121;48.062;7.850;2024-03-08T02:14:45;40.60;;;15.23;;
4214;SDS011;2121;48.062;7.850;2024-03-08T02:17:12;33.67;;;16.70;;
4214;SDS011;2121;48.062;7.850;2024-03-08T02:19:38;36.60;;;16.10;;
4214;SDS011;2121;48.062;7.850;2024-03-08T02:22:03;22.37;;;14.23;;
4214;SDS011;2121;48.062;7.850;2024-03-08T02:24:31;32.57;;;16.07;;
4214;SDS011;2121;48.062;7.850;2024-03-08T02:26:58;27.20;;;15.43;;
4214;SDS011;2121;48.062;7.850;2024-03-08T02:29:23;26.83;;;14.70;;
4214;SDS011;2121;48.062;7.850;2024-03-08T02:31:52;24.77;;;14.47;;
4214;SDS011;2121;48.062;7.850;2024-03-08T02:34:18;31.60;;;15.00;;
4214;SDS011;2121;48.062;7.850;2024-03-08T02:36:45;28.87;;;17.10;;
4214;SDS011;2121;48.062;7.850;2024-03-08T02:39:11;33.93;;;14.80;;
4214;SDS011;2121;48.062;7.850;2024-03-08T02:41:37;33.37;;;15.20;;
4214;SDS011;2121;48.062;7.850;2024-03-08T02:44:03;35.93;;;15.63;;
4214;SDS011;2121;48.062;7.850;2024-03-08T02:46:29;30.80;;;13.30;;
4214;SDS011;2121;48.062;7.850;2024-03-08T02:48:55;27.93;;;14.87;;
4214;SDS011;2121;48.062;7.850;2024-03-08T02:51:21;23.23;;;13.33;;
4214;SDS011;2121;48.062;7.850;2024-03-08T02:53:46;26.20;;;14.33;;
4214;SDS011;2121;48.062;7.850;2024-03-08T02:56:13;22.67;;;12.70;;
4214;SDS011;2121;48.062;7.850;2024-03-08T02:58:41;26.50;;;13.53;;
4214;SDS011;2121;48.062;7.850;2024-03-08T03:01:08;27.17;;;12.57;;
4214;SDS011;2121;48.062;7.850;2024-03-08T03:03:35;22.27;;;12.40;;
4214;SDS011;2121;48.062;7.850;2024-03-08T03:06:01;19.17;;;12.30;;
4214;SDS011;2121;48.062;7.850;2024-03-08T03:08:27;22.90;;;13.87;;
4214;SDS011;2121;48.062;7.850;2024-03-08T03:10:53;26.57;;;13.93;;
4214;SDS011;2121;48.062;7.850;2024-03-08T03:13:21;30.47;;;14.13;;
4214;SDS011;2121;48.062;7.850;2024-03-08T03:15:48;25.07;;;11.30;;
4214;SDS011;2121;48.062;7.850;2024-03-08T03:18:14;28.00;;;14.53;;
4214;SDS011;2121;48.062;7.850;2024-03-08T03:20:40;22.97;;;13.40;;
4214;SDS011;2121;48.062;7.850;2024-03-08T03:23:07;24.43;;;13.00;;
4214;SDS011;2121;48.062;7.850;2024-03-08T03:25:34;29.27;;;16.10;;
4214;SDS011;2121;48.062;7.850;2024-03-08T03:28:03;23.07;;;12.77;;
4214;SDS011;2121;48.062;7.850;2024-03-08T03:30:30;27.60;;;13.13;;
4214;SDS011;2121;48.062;7.850;2024-03-08T03:33:01;27.80;;;13.57;;
4214;SDS011;2121;48.062;7.850;2024-03-08T03:35:31;26.70;;;14.93;;
4214;SDS011;2121;48.062;7.850;2024-03-08T03:37:58;29.00;;;15.30;;
4214;SDS011;2121;48.062;7.850;2024-03-08T03:40:33;37.53;;;16.43;;
4214;SDS011;2121;48.062;7.850;2024-03-08T03:42:59;27.43;;;14.37;;
4214;SDS011;2121;48.062;7.850;2024-03-08T03:45:25;28.23;;;14.03;;
4214;SDS011;2121;48.062;7.850;2024-03-08T03:47:51;28.43;;;14.40;;
4214;SDS011;2121;48.062;7.850;2024-03-08T03:50:17;24.40;;;13.50;;
4214;SDS011;2121;48.062;7.850;2024-03-08T03:52:45;24.60;;;11.90;;
4214;SDS011;2121;48.062;7.850;2024-03-08T03:55:14;26.17;;;14.23;;
4214;SDS011;2121;48.062;7.850;2024-03-08T03:57:40;26.70;;;13.73;;
4214;SDS011;2121;48.062;7.850;2024-03-08T04:00:06;30.27;;;13.97;;
4214;SDS011;2121;48.062;7.850;2024-03-08T04:02:37;25.10;;;12.50;;
4214;SDS011;2121;48.062;7.850;2024-03-08T04:05:04;25.13;;;14.07;;
4214;SDS011;2121;48.062;7.850;2024-03-08T04:07:31;26.87;;;13.60;;
4214;SDS011;2121;48.062;7.850;2024-03-08T04:09:57;21.40;;;12.23;;
4214;SDS011;2121;48.062;7.850;2024-03-08T04:12:23;25.97;;;13.17;;
4214;SDS011;2121;48.062;7.850;2024-03-08T04:14:48;20.50;;;12.60;;
4214;SDS011;2121;48.062;7.850;2024-03-08T04:17:14;26.23;;;13.47;;
4214;SDS011;2121;48.062;7.850;2024-03-08T04:19:40;27.60;;;12.73;;
4214;SDS011;2121;48.062;7.850;2024-03-08T04:22:06;28.73;;;14.57;;
4214;SDS011;2121;48.062;7.850;2024-03-08T04:24:32;32.80;;;14.07;;
4214;SDS011;2121;48.062;7.850;2024-03-08T04:26:58;30.03;;;14.50;;
4214;SDS011;2121;48.062;7.850;2024-03-08T04:29:24;24.50;;;13.60;;
4214;SDS011;2121;48.062;7.850;2024-03-08T04:31:51;24.23;;;14.20;;
4214;SDS011;2121;48.062;7.850;2024-03-08T04:34:19;27.40;;;13.87;;
4214;SDS011;2121;48.062;7.850;2024-03-08T04:36:46;24.90;;;13.27;;
4214;SDS011;2121;48.062;7.850;2024-03-08T04:39:13;25.73;;;13.03;;
4214;SDS011;2121;48.062;7.850;2024-03-08T04:41:40;26.20;;;13.07;;
4214;SDS011;2121;48.062;7.850;2024-03-08T04:44:08;19.33;;;13.10;;
4214;SDS011;2121;48.062;7.850;2024-03-08T04:46:37;26.27;;;14.23;;
4214;SDS011;2121;48.062;7.850;2024-03-08T04:49:03;29.97;;;13.63;;
4214;SDS011;2121;48.062;7.850;2024-03-08T04:51:29;31.80;;;14.67;;
4214;SDS011;2121;48.062;7.850;2024-03-08T04:53:55;25.97;;;12.40;;
4214;SDS011;2121;48.062;7.850;2024-03-08T04:56:22;21.60;;;13.10;;
4214;SDS011;2121;48.062;7.850;2024-03-08T04:58:47;25.60;;;13.53;;
4214;SDS011;2121;48.062;7.850;2024-03-08T05:01:14;22.10;;;13.70;;
4214;SDS011;2121;48.062;7.850;2024-03-08T05:03:40;25.03;;;15.20;;
4214;SDS011;2121;48.062;7.850;2024-03-08T05:06:06;28.30;;;14.37;;
4214;SDS011;2121;48.062;7.850;2024-03-08T05:08:32;27.10;;;14.10;;
4214;SDS011;2121;48.062;7.850;2024-03-08T05:10:58;26.30;;;13.10;;
4214;SDS011;2121;48.062;7.850;2024-03-08T05:13:24;23.50;;;14.13;;
4214;SDS011;2121;48.062;7.850;2024-03-08T05:15:50;25.53;;;13.33;;
4214;SDS011;2121;48.062;7.850;2024-03-08T05:18:16;23.17;;;13.73;;
4214;SDS011;2121;48.062;7.850;2024-03-08T05:20:41;26.87;;;11.23;;
4214;SDS011;2121;48.062;7.850;2024-03-08T05:23:07;27.23;;;14.50;;
4214;SDS011;2121;48.062;7.850;2024-03-08T05:25:33;25.50;;;15.30;;
4214;SDS011;2121;48.062;7.850;2024-03-08T05:27:59;26.30;;;12.43;;
4214;SDS011;2121;48.062;7.850;2024-03-08T05:30:24;23.07;;;13.10;;
4214;SDS011;2121;48.062;7.850;2024-03-08T05:32:50;34.53;;;14.50;;
4214;SDS011;2121;48.062;7.850;2024-03-08T05:35:16;22.80;;;13.23;;
4214;SDS011;2121;48.062;7.850;2024-03-08T05:37:42;26.93;;;13.50;;
4214;SDS011;2121;48.062;7.850;2024-03-08T05:40:08;25.03;;;13.83;;
4214;SDS011;2121;48.062;7.850;2024-03-08T05:42:37;22.50;;;13.03;;
4214;SDS011;2121;48.062;7.850;2024-03-08T05:45:06;28.93;;;13.17;;
4214;SDS011;2121;48.062;7.850;2024-03-08T05:47:32;21.33;;;11.27;;
4214;SDS011;2121;48.062;7.850;2024-03-08T05:49:58;28.77;;;11.90;;
4214;SDS011;2121;48.062;7.850;2024-03-08T05:52:24;23.73;;;12.93;;
4214;SDS011;2121;48.062;7.850;2024-03-08T05:54:51;29.50;;;13.07;;
4214;SDS011;2121;48.062;7.850;2024-03-08T05:57:17;24.60;;;12.87;;
4214;SDS011;2121;48.062;7.850;2024-03-08T05:59:42;25.17;;;12.60;;
4214;SDS011;2121;48.062;7.850;2024-03-08T06:02:08;23.00;;;13.10;;
4214;SDS011;2121;48.062;7.850;2024-03-08T06:04:34;23.90;;;13.80;;
4214;SDS011;2121;48.062;7.850;2024-03-08T06:07:00;30.60;;;12.97;;
4214;SDS011;2121;48.062;7.850;2024-03-08T06:09:28;32.00;;;13.73;;
4214;SDS011;2121;48.062;7.850;2024-03-08T06:11:54;29.33;;;12.47;;
4214;SDS011;2121;48.062;7.850;2024-03-08T06:14:20;23.63;;;13.30;;
4214;SDS011;2121;48.062;7.850;2024-03-08T06:16:46;26.10;;;14.70;;
4214;SDS011;2121;48.062;7.850;2024-03-08T06:19:12;39.80;;;15.27;;
4214;SDS011;2121;48.062;7.850;2024-03-08T06:21:38;27.83;;;14.80;;
4214;SDS011;2121;48.062;7.850;2024-03-08T06:24:04;33.67;;;14.17;;
4214;SDS011;2121;48.062;7.850;2024-03-08T06:26:30;34.10;;;15.00;;
4214;SDS011;2121;48.062;7.850;2024-03-08T06:28:56;32.77;;;15.70;;
4214;SDS011;2121;48.062;7.850;2024-03-08T06:31:22;22.63;;;12.77;;
4214;SDS011;2121;48.062;7.850;2024-03-08T06:33:49;25.80;;;13.20;;
4214;SDS011;2121;48.062;7.850;2024-03-08T06:36:18;23.73;;;13.40;;
4214;SDS011;2121;48.062;7.850;2024-03-08T06:38:46;33.50;;;12.87;;
4214;SDS011;2121;48.062;7.850;2024-03-08T06:41:13;26.70;;;14.73;;
4214;SDS011;2121;48.062;7.850;2024-03-08T06:43:42;32.57;;;17.20;;
4214;SDS011;2121;48.062;7.850;2024-03-08T06:46:08;21.10;;;14.07;;
4214;SDS011;2121;48.062;7.850;2024-03-08T06:48:35;24.90;;;14.47;;
4214;SDS011;2121;48.062;7.850;2024-03-08T06:51:03;26.60;;;15.40;;
4214;SDS011;2121;48.062;7.850;2024-03-08T06:53:30;30.90;;;17.80;;
4214;SDS011;2121;48.062;7.850;2024-03-08T06:55:57;28.97;;;14.70;;
4214;SDS011;2121;48.062;7.850;2024-03-08T06:58:23;27.80;;;14.20;;
4214;SDS011;2121;48.062;7.850;2024-03-08T07:00:49;23.30;;;13.50;;
4214;SDS011;2121;48.062;7.850;2024-03-08T07:03:18;27.87;;;14.70;;
4214;SDS011;2121;48.062;7.850;2024-03-08T07:05:44;28.57;;;15.67;;
4214;SDS011;2121;48.062;7.850;2024-03-08T07:08:10;30.33;;;14.50;;
4214;SDS011;2121;48.062;7.850;2024-03-08T07:10:39;32.40;;;15.80;;
4214;SDS011;2121;48.062;7.850;2024-03-08T07:13:06;29.23;;;15.60;;
4214;SDS011;2121;48.062;7.850;2024-03-08T07:15:33;26.87;;;15.17;;
4214;SDS011;2121;48.062;7.850;2024-03-08T07:18:00;33.80;;;17.30;;
4214;SDS011;2121;48.062;7.850;2024-03-08T07:20:26;27.67;;;14.37;;
4214;SDS011;2121;48.062;7.850;2024-03-08T07:22:53;35.97;;;16.33;;
4214;SDS011;2121;48.062;7.850;2024-03-08T07:25:19;25.20;;;16.00;;
4214;SDS011;2121;48.062;7.850;2024-03-08T07:27:52;28.23;;;16.60;;
4214;SDS011;2121;48.062;7.850;2024-03-08T07:30:20;32.00;;;18.53;;
4214;SDS011;2121;48.062;7.850;2024-03-08T07:33:06;30.83;;;16.13;;
4214;SDS011;2121;48.062;7.850;2024-03-08T07:35:32;29.17;;;16.77;;
4214;SDS011;2121;48.062;7.850;2024-03-08T07:38:02;30.40;;;17.73;;
4214;SDS011;2121;48.062;7.850;2024-03-08T07:40:30;30.03;;;15.80;;
4214;SDS011;2121;48.062;7.850;2024-03-08T07:42:57;25.70;;;15.73;;
4214;SDS011;2121;48.062;7.850;2024-03-08T07:45:23;28.50;;;17.07;;
4214;SDS011;2121;48.062;7.850;2024-03-08T07:47:49;30.87;;;17.67;;
4214;SDS011;2121;48.062;7.850;2024-03-08T07:50:15;38.40;;;17.03;;
4214;SDS011;2121;48.062;7.850;2024-03-08T07:52:41;30.47;;;17.00;;
4214;SDS011;2121;48.062;7.850;2024-03-08T07:55:08;34.10;;;16.17;;
4214;SDS011;2121;48.062;7.850;2024-03-08T07:57:35;35.53;;;16.40;;
4214;SDS011;2121;48.062;7.850;2024-03-08T08:00:03;27.97;;;16.23;;
4214;SDS011;2121;48.062;7.850;2024-03-08T08:02:32;28.00;;;15.47;;
4214;SDS011;2121;48.062;7.850;2024-03-08T08:04:59;29.20;;;15.37;;
4214;SDS011;2121;48.062;7.850;2024-03-08T08:07:25;30.67;;;16.23;;
4214;SDS011;2121;48.062;7.850;2024-03-08T08:09:52;25.47;;;14.87;;
4214;SDS011;2121;48.062;7.850;2024-03-08T08:12:18;27.03;;;14.93;;
4214;SDS011;2121;48.062;7.850;2024-03-08T08:14:44;24.63;;;13.83;;
4214;SDS011;2121;48.062;7.850;2024-03-08T08:17:11;28.97;;;16.60;;
4214;SDS011;2121;48.062;7.850;2024-03-08T08:19:37;29.00;;;16.00;;
4214;SDS011;2121;48.062;7.850;2024-03-08T08:22:05;30.63;;;16.30;;
4214;SDS011;2121;48.062;7.850;2024-03-08T08:24:33;28.70;;;14.80;;
4214;SDS011;2121;48.062;7.850;2024-03-08T08:27:01;49.33;;;23.17;;
4214;SDS011;2121;48.062;7.850;2024-03-08T08:29:28;28.50;;;15.23;;
4214;SDS011;2121;48.062;7.850;2024-03-08T08:31:54;28.53;;;13.90;;
4214;SDS011;2121;48.062;7.850;2024-03-08T08:34:19;21.40;;;13.33;;
4214;SDS011;2121;48.062;7.850;2024-03-08T08:36:48;21.90;;;13.57;;
4214;SDS011;2121;48.062;7.850;2024-03-08T08:39:14;20.50;;;12.50;;
4214;SDS011;2121;48.062;7.850;2024-03-08T08:41:42;21.93;;;12.70;;
4214;SDS011;2121;48.062;7.850;2024-03-08T08:44:07;25.00;;;12.67;;
4214;SDS011;2121;48.062;7.850;2024-03-08T08:46:35;22.87;;;13.27;;
4214;SDS011;2121;48.062;7.850;2024-03-08T08:49:02;23.90;;;15.07;;
4214;SDS011;2121;48.062;7.850;2024-03-08T08:51:29;27.50;;;15.13;;
4214;SDS011;2121;48.062;7.850;2024-03-08T08:53:56;22.23;;;13.07;;
4214;SDS011;2121;48.062;7.850;2024-03-08T08:56:21;19.60;;;13.83;;
4214;SDS011;2121;48.062;7.850;2024-03-08T08:58:47;21.57;;;12.20;;
4214;SDS011;2121;48.062;7.850;2024-03-08T09:01:14;26.43;;;14.40;;
4214;SDS011;2121;48.062;7.850;2024-03-08T09:03:39;25.73;;;12.77;;
4214;SDS011;2121;48.062;7.850;2024-03-08T09:06:09;22.57;;;14.43;;
4214;SDS011;2121;48.062;7.850;2024-03-08T09:08:38;20.10;;;14.27;;
4214;SDS011;2121;48.062;7.850;2024-03-08T09:11:04;23.30;;;14.00;;
4214;SDS011;2121;48.062;7.850;2024-03-08T09:13:30;20.97;;;13.03;;
4214;SDS011;2121;48.062;7.850;2024-03-08T09:15:57;23.47;;;13.43;;
4214;SDS011;2121;48.062;7.850;2024-03-08T09:18:22;21.10;;;12.90;;
4214;SDS011;2121;48.062;7.850;2024-03-08T09:20:51;21.40;;;12.10;;
4214;SDS011;2121;48.062;7.850;2024-03-08T09:23:21;36.63;;;14.40;;
4214;SDS011;2121;48.062;7.850;2024-03-08T09:25:47;24.93;;;13.10;;
4214;SDS011;2121;48.062;7.850;2024-03-08T09:28:13;23.10;;;13.10;;
4214;SDS011;2121;48.062;7.850;2024-03-08T09:30:39;24.77;;;14.80;;
4214;SDS011;2121;48.062;7.850;2024-03-08T09:33:05;22.63;;;12.03;;
4214;SDS011;2121;48.062;7.850;2024-03-08T09:35:31;23.27;;;13.27;;
4214;SDS011;2121;48.062;7.850;2024-03-08T09:37:57;24.27;;;12.53;;
4214;SDS011;2121;48.062;7.850;2024-03-08T09:40:23;19.23;;;12.33;;
4214;SDS011;2121;48.062;7.850;2024-03-08T09:42:50;18.73;;;10.63;;
4214;SDS011;2121;48.062;7.850;2024-03-08T09:45:17;18.00;;;10.80;;
4214;SDS011;2121;48.062;7.850;2024-03-08T09:47:47;21.27;;;13.50;;
4214;SDS011;2121;48.062;7.850;2024-03-08T09:50:16;15.43;;;9.90;;
4214;SDS011;2121;48.062;7.850;2024-03-08T09:52:43;15.70;;;11.27;;
4214;SDS011;2121;48.062;7.850;2024-03-08T09:55:12;17.57;;;11.40;;
4214;SDS011;2121;48.062;7.850;2024-03-08T09:57:38;23.90;;;13.20;;
4214;SDS011;2121;48.062;7.850;2024-03-08T10:00:05;20.27;;;11.70;;
4214;SDS011;2121;48.062;7.850;2024-03-08T10:02:48;19.90;;;12.10;;
4214;SDS011;2121;48.062;7.850;2024-03-08T10:05:17;22.93;;;13.30;;
4214;SDS011;2121;48.062;7.850;2024-03-08T10:07:43;19.30;;;12.43;;
4214;SDS011;2121;48.062;7.850;2024-03-08T10:10:09;19.53;;;12.00;;
4214;SDS011;2121;48.062;7.850;2024-03-08T10:12:37;18.30;;;10.37;;
4214;SDS011;2121;48.062;7.850;2024-03-08T10:15:05;23.03;;;14.07;;
4214;SDS011;2121;48.062;7.850;2024-03-08T10:17:34;19.60;;;12.13;;
4214;SDS011;2121;48.062;7.850;2024-03-08T10:20:00;24.70;;;12.87;;
4214;SDS011;2121;48.062;7.850;2024-03-08T10:22:26;22.00;;;11.10;;
4214;SDS011;2121;48.062;7.850;2024-03-08T10:24:52;19.77;;;11.40;;
4214;SDS011;2121;48.062;7.850;2024-03-08T10:27:17;18.50;;;11.67;;
4214;SDS011;2121;48.062;7.850;2024-03-08T10:29:47;21.40;;;12.63;;
4214;SDS011;2121;48.062;7.850;2024-03-08T10:32:13;20.50;;;12.00;;
4214;SDS011;2121;48.062;7.850;2024-03-08T10:34:39;24.73;;;12.97;;
4214;SDS011;2121;48.062;7.850;2024-03-08T10:37:06;20.50;;;12.00;;
4214;SDS011;2121;48.062;7.850;2024-03-08T10:39:42;23.87;;;14.27;;
4214;SDS011;2121;48.062;7.850;2024-03-08T10:42:22;22.97;;;13.53;;
4214;SDS011;2121;48.062;7.850;2024-03-08T10:44:58;20.30;;;12.90;;
4214;SDS011;2121;48.062;7.850;2024-03-08T10:47:33;21.40;;;11.17;;
4214;SDS011;2121;48.062;7.850;2024-03-08T10:50:19;19.30;;;12.97;;
4214;SDS011;2121;48.062;7.850;2024-03-08T10:52:47;20.70;;;12.93;;
4214;SDS011;2121;48.062;7.850;2024-03-08T10:55:15;24.63;;;13.03;;
4214;SDS011;2121;48.062;7.850;2024-03-08T10:57:42;22.63;;;13.67;;
4214;SDS011;2121;48.062;7.850;2024-03-08T11:00:08;18.17;;;11.13;;
4214;SDS011;2121;48.062;7.850;2024-03-08T11:02:37;20.37;;;12.03;;
4214;SDS011;2121;48.062;7.850;2024-03-08T11:05:03;17.60;;;12.03;;
4214;SDS011;2121;48.062;7.850;2024-03-08T11:07:34;17.97;;;11.20;;
4214;SDS011;2121;48.062;7.850;2024-03-08T11:10:02;24.00;;;12.20;;
4214;SDS011;2121;48.062;7.850;2024-03-08T11:12:36;23.27;;;11.40;;
4214;SDS011;2121;48.062;7.850;2024-03-08T11:15:06;18.90;;;12.80;;
4214;SDS011;2121;48.062;7.850;2024-03-08T11:22:41;20.73;;;12.50;;
4214;SDS011;2121;48.062;7.850;2024-03-08T11:25:34;23.40;;;13.60;;
4214;SDS011;2121;48.062;7.850;2024-03-08T11:31:33;21.43;;;13.20;;
4214;SDS011;2121;48.062;7.850;2024-03-08T11:33:35;23.90;;;14.80;;
4214;SDS011;2121;48.062;7.850;2024-03-08T11:39:00;27.13;;;14.90;;
4214;SDS011;2121;48.062;7.850;2024-03-08T11:41:34;23.60;;;14.03;;
4214;SDS011;2121;48.062;7.850;2024-03-08T11:44:03;23.27;;;14.40;;
4214;SDS011;2121;48.062;7.850;2024-03-08T11:46:30;20.80;;;13.30;;
4214;SDS011;2121;48.062;7.850;2024-03-08T11:48:56;27.00;;;15.13;;
4214;SDS011;2121;48.062;7.850;2024-03-08T11:51:22;22.87;;;15.23;;
4214;SDS011;2121;48.062;7.850;2024-03-08T11:53:49;28.47;;;15.87;;
4214;SDS011;2121;48.062;7.850;2024-03-08T11:56:17;25.57;;;14.60;;
4214;SDS011;2121;48.062;7.850;2024-03-08T11:58:52;25.53;;;15.27;;
4214;SDS011;2121;48.062;7.850;2024-03-08T12:01:22;21.73;;;13.40;;
4214;SDS011;2121;48.062;7.850;2024-03-08T12:03:55;25.50;;;14.23;;
4214;SDS011;2121;48.062;7.850;2024-03-08T12:06:24;22.10;;;14.57;;
4214;SDS011;2121;48.062;7.850;2024-03-08T12:08:50;27.80;;;14.53;;
4214;SDS011;2121;48.062;7.850;2024-03-08T12:11:22;22.23;;;13.50;;
4214;SDS011;2121;48.062;7.850;2024-03-08T12:13:48;24.03;;;14.60;;
4214;SDS011;2121;48.062;7.850;2024-03-08T12:16:17;21.90;;;13.93;;
4214;SDS011;2121;48.062;7.850;2024-03-08T12:18:43;25.43;;;14.67;;
4214;SDS011;2121;48.062;7.850;2024-03-08T12:21:10;25.17;;;14.23;;
4214;SDS011;2121;48.062;7.850;2024-03-08T12:23:39;19.97;;;13.83;;
4214;SDS011;2121;48.062;7.850;2024-03-08T12:26:15;25.70;;;13.30;;
4214;SDS011;2121;48.062;7.850;2024-03-08T12:28:49;19.17;;;14.23;;
4214;SDS011;2121;48.062;7.850;2024-03-08T12:31:16;18.77;;;13.47;;
4214;SDS011;2121;48.062;7.850;2024-03-08T12:33:52;21.57;;;14.33;;
4214;SDS011;2121;48.062;7.850;2024-03-08T12:36:20;20.63;;;13.17;;
4214;SDS011;2121;48.062;7.850;2024-03-08T12:38:46;26.43;;;15.20;;
4214;SDS011;2121;48.062;7.850;2024-03-08T12:41:15;22.77;;;15.03;;
4214;SDS011;2121;48.062;7.850;2024-03-08T12:43:43;17.47;;;12.77;;
4214;SDS011;2121;48.062;7.850;2024-03-08T12:48:55;21.57;;;12.63;;
4214;SDS011;2121;48.062;7.850;2024-03-08T12:51:21;20.47;;;13.07;;
4214;SDS011;2121;48.062;7.850;2024-03-08T12:53:47;17.50;;;11.77;;
4214;SDS011;2121;48.062;7.850;2024-03-08T12:56:13;20.60;;;13.40;;
4214;SDS011;2121;48.062;7.850;2024-03-08T12:58:55;16.57;;;11.40;;
4214;SDS011;2121;48.062;7.850;2024-03-08T13:01:21;18.07;;;13.20;;
4214;SDS011;2121;48.062;7.850;2024-03-08T13:03:47;17.37;;;11.47;;
4214;SDS011;2121;48.062;7.850;2024-03-08T13:06:14;20.40;;;12.33;;
4214;SDS011;2121;48.062;7.850;2024-03-08T13:08:40;19.50;;;13.13;;
4214;SDS011;2121;48.062;7.850;2024-03-08T13:11:08;17.93;;;12.17;;
4214;SDS011;2121;48.062;7.850;2024-03-08T13:13:37;17.10;;;11.67;;
4214;SDS011;2121;48.062;7.850;2024-03-08T13:16:05;15.27;;;10.80;;
4214;SDS011;2121;48.062;7.850;2024-03-08T13:18:34;13.00;;;9.73;;
4214;SDS011;2121;48.062;7.850;2024-03-08T13:21:00;21.53;;;12.37;;
4214;SDS011;2121;48.062;7.850;2024-03-08T13:23:36;17.60;;;10.80;;
4214;SDS011;2121;48.062;7.850;2024-03-08T13:26:12;16.80;;;11.87;;
4214;SDS011;2121;48.062;7.850;2024-03-08T13:28:46;19.53;;;12.87;;
4214;SDS011;2121;48.062;7.850;2024-03-08T13:31:18;15.80;;;11.57;;
4214;SDS011;2121;48.062;7.850;2024-03-08T13:33:48;14.83;;;10.67;;
4214;SDS011;2121;48.062;7.850;2024-03-08T13:36:13;16.60;;;11.93;;
4214;SDS011;2121;48.062;7.850;2024-03-08T13:38:43;16.20;;;11.70;;
4214;SDS011;2121;48.062;7.850;2024-03-08T13:41:10;14.50;;;11.43;;
4214;SDS011;2121;48.062;7.850;2024-03-08T13:43:39;16.47;;;10.57;;
4214;SDS011;2121;48.062;7.850;2024-03-08T13:46:08;16.57;;;11.87;;
4214;SDS011;2121;48.062;7.850;2024-03-08T13:48:35;14.93;;;10.87;;
4214;SDS011;2121;48.062;7.850;2024-03-08T13:51:06;17.93;;;10.60;;
4214;SDS011;2121;48.062;7.850;2024-03-08T13:53:33;14.07;;;10.60;;
4214;SDS011;2121;48.062;7.850;2024-03-08T13:56:02;19.17;;;10.53;;
4214;SDS011;2121;48.062;7.850;2024-03-08T13:58:28;20.47;;;11.37;;
4214;SDS011;2121;48.062;7.850;2024-03-08T14:00:54;16.50;;;11.93;;
4214;SDS011;2121;48.062;7.850;2024-03-08T14:03:20;19.50;;;12.40;;
4214;SDS011;2121;48.062;7.850;2024-03-08T14:05:46;17.90;;;11.00;;
4214;SDS011;2121;48.062;7.850;2024-03-08T14:08:12;22.63;;;10.83;;
4214;SDS011;2121;48.062;7.850;2024-03-08T14:10:38;15.80;;;11.17;;
4214;SDS011;2121;48.062;7.850;2024-03-08T14:13:04;19.93;;;13.90;;
4214;SDS011;2121;48.062;7.850;2024-03-08T14:15:31;18.33;;;12.70;;
4214;SDS011;2121;48.062;7.850;2024-03-08T14:17:58;15.10;;;10.27;;
4214;SDS011;2121;48.062;7.850;2024-03-08T14:20:24;16.40;;;10.97;;
4214;SDS011;2121;48.062;7.850;2024-03-08T14:22:56;19.03;;;12.00;;
4214;SDS011;2121;48.062;7.850;2024-03-08T14:25:22;17.10;;;10.97;;
4214;SDS011;2121;48.062;7.850;2024-03-08T14:27:49;20.20;;;11.30;;
4214;SDS011;2121;48.062;7.850;2024-03-08T14:30:23;17.40;;;12.30;;
4214;SDS011;2121;48.062;7.850;2024-03-08T14:33:03;20.13;;;12.00;;
4214;SDS011;2121;48.062;7.850;2024-03-08T14:35:37;15.60;;;11.00;;
4214;SDS011;2121;48.062;7.850;2024-03-08T14:38:05;16.83;;;12.30;;
4214;SDS011;2121;48.062;7.850;2024-03-08T14:40:35;16.60;;;10.97;;
4214;SDS011;2121;48.062;7.850;2024-03-08T14:43:03;18.63;;;11.93;;
4214;SDS011;2121;48.062;7.850;2024-03-08T14:45:29;17.50;;;12.37;;
4214;SDS011;2121;48.062;7.850;2024-03-08T14:47:55;16.17;;;11.63;;
4214;SDS011;2121;48.062;7.850;2024-03-08T14:50:22;17.10;;;11.07;;
4214;SDS011;2121;48.062;7.850;2024-03-08T14:52:50;19.60;;;12.60;;
4214;SDS011;2121;48.062;7.850;2024-03-08T14:55:17;14.40;;;10.87;;
4214;SDS011;2121;48.062;7.850;2024-03-08T14:57:47;12.63;;;10.63;;
4214;SDS011;2121;48.062;7.850;2024-03-08T15:00:16;15.73;;;10.13;;
4214;SDS011;2121;48.062;7.850;2024-03-08T15:02:53;17.80;;;11.90;;